sensor_id;sensor_type;location;lat;lon;timestamp;pressure;altitude;pressure_sealevel;temperature;humidity
13934;BME280;7039;52.168;9.866;2022-08-30T00:00:53;101190.44;;;15.29;90.69
13934;BME280;7039;52.168;9.866;2022-08-30T00:03:29;101191.63;;;15.23;90.42
13934;BME280;7039;52.168;9.866;2022-08-30T00:05:56;101178.63;;;15.06;91.32
13934;BME280;7039;52.168;9.866;2022-08-30T00:08:22;101183.72;;;14.93;92.68
13934;BME280;7039;52.168;9.866;2022-08-30T00:10:49;101194.16;;;14.95;92.96
13934;BME280;7039;52.168;9.866;2022-08-30T00:13:17;101190.56;;;14.96;92.54
13934;BME280;7039;52.168;9.866;2022-08-30T00:15:45;101192.28;;;14.97;92.48
13934;BME280;7039;52.168;9.866;2022-08-30T00:18:12;101187.28;;;14.92;92.14
13934;BME280;7039;52.168;9.866;2022-08-30T00:20:41;101196.03;;;14.93;91.74
13934;BME280;7039;52.168;9.866;2022-08-30T00:23:07;101189.31;;;14.87;91.60
13934;BME280;7039;52.168;9.866;2022-08-30T00:25:34;101193.31;;;14.94;91.69
13934;BME280;7039;52.168;9.866;2022-08-30T00:28:01;101188.44;;;15.02;90.94
13934;BME280;7039;52.168;9.866;2022-08-30T00:30:28;101185.81;;;15.02;90.90
13934;BME280;7039;52.168;9.866;2022-08-30T00:32:56;101184.41;;;14.97;91.90
13934;BME280;7039;52.168;9.866;2022-08-30T00:35:24;101188.97;;;14.93;92.62
13934;BME280;7039;52.168;9.866;2022-08-30T00:37:52;101187.38;;;14.91;92.23
13934;BME280;7039;52.168;9.866;2022-08-30T00:40:20;101176.09;;;14.89;92.10
13934;BME280;7039;52.168;9.866;2022-08-30T00:42:47;101184.94;;;14.88;91.82
13934;BME280;7039;52.168;9.866;2022-08-30T00:45:17;101185.78;;;14.88;92.46
13934;BME280;7039;52.168;9.866;2022-08-30T00:47:44;101176.19;;;14.87;92.37
13934;BME280;7039;52.168;9.866;2022-08-30T00:50:13;101172.72;;;14.87;92.11
13934;BME280;7039;52.168;9.866;2022-08-30T00:52:41;101162.91;;;14.74;91.48
13934;BME280;7039;52.168;9.866;2022-08-30T00:55:11;101170.69;;;14.60;92.13
13934;BME280;7039;52.168;9.866;2022-08-30T00:57:38;101175.94;;;14.60;92.80
13934;BME280;7039;52.168;9.866;2022-08-30T01:00:06;101171.03;;;14.54;93.00
13934;BME280;7039;52.168;9.866;2022-08-30T01:02:34;101178.91;;;14.38;93.63
13934;BME280;7039;52.168;9.866;2022-08-30T01:05:01;101181.69;;;14.35;94.02
13934;BME280;7039;52.168;9.866;2022-08-30T01:07:28;101179.16;;;14.33;93.62
13934;BME280;7039;52.168;9.866;2022-08-30T01:09:55;101181.66;;;14.19;93.67
13934;BME280;7039;52.168;9.866;2022-08-30T01:12:23;101192.00;;;14.22;93.98
13934;BME280;7039;52.168;9.866;2022-08-30T01:14:51;101178.88;;;14.06;95.12
13934;BME280;7039;52.168;9.866;2022-08-30T01:17:18;101186.22;;;13.99;95.69
13934;BME280;7039;52.168;9.866;2022-08-30T01:19:47;101184.09;;;14.06;95.53
13934;BME280;7039;52.168;9.866;2022-08-30T01:22:20;101188.94;;;14.14;95.16
13934;BME280;7039;52.168;9.866;2022-08-30T01:24:53;101190.28;;;14.21;94.63
13934;BME280;7039;52.168;9.866;2022-08-30T01:27:21;101190.22;;;14.23;94.03
13934;BME280;7039;52.168;9.866;2022-08-30T01:29:49;101182.44;;;14.21;93.45
13934;BME280;7039;52.168;9.866;2022-08-30T01:32:17;101178.69;;;14.09;94.56
13934;BME280;7039;52.168;9.866;2022-08-30T01:34:44;101186.72;;;14.06;95.10
13934;BME280;7039;52.168;9.866;2022-08-30T01:37:13;101190.22;;;13.89;95.69
13934;BME280;7039;52.168;9.866;2022-08-30T01:39:41;101193.06;;;14.02;95.34
13934;BME280;7039;52.168;9.866;2022-08-30T01:42:12;101197.47;;;14.02;94.41
13934;BME280;7039;52.168;9.866;2022-08-30T01:44:38;101196.28;;;14.07;94.31
13934;BME280;7039;52.168;9.866;2022-08-30T01:47:05;101200.50;;;14.10;94.44
13934;BME280;7039;52.168;9.866;2022-08-30T01:49:31;101195.97;;;14.13;94.17
13934;BME280;7039;52.168;9.866;2022-08-30T01:51:58;101193.78;;;14.22;93.33
13934;BME280;7039;52.168;9.866;2022-08-30T01:54:24;101192.91;;;14.21;92.81
13934;BME280;7039;52.168;9.866;2022-08-30T01:56:51;101183.28;;;14.22;92.88
13934;BME280;7039;52.168;9.866;2022-08-30T01:59:19;101187.59;;;14.23;93.52
13934;BME280;7039;52.168;9.866;2022-08-30T02:01:45;101184.38;;;14.17;93.58
13934;BME280;7039;52.168;9.866;2022-08-30T02:04:12;101186.13;;;14.17;93.89
13934;BME280;7039;52.168;9.866;2022-08-30T02:06:39;101186.13;;;14.17;93.65
13934;BME280;7039;52.168;9.866;2022-08-30T02:09:06;101190.47;;;14.18;93.82
13934;BME280;7039;52.168;9.866;2022-08-30T02:11:32;101188.16;;;14.12;93.51
13934;BME280;7039;52.168;9.866;2022-08-30T02:13:59;101185.66;;;14.10;93.91
13934;BME280;7039;52.168;9.866;2022-08-30T02:16:27;101183.03;;;14.10;94.30
13934;BME280;7039;52.168;9.866;2022-08-30T02:18:54;101186.63;;;14.08;93.67
13934;BME280;7039;52.168;9.866;2022-08-30T02:21:21;101182.41;;;14.05;93.45
13934;BME280;7039;52.168;9.866;2022-08-30T02:23:48;101181.81;;;14.00;93.44
13934;BME280;7039;52.168;9.866;2022-08-30T02:26:16;101184.94;;;14.07;93.27
13934;BME280;7039;52.168;9.866;2022-08-30T02:28:43;101179.78;;;14.05;92.96
13934;BME280;7039;52.168;9.866;2022-08-30T02:31:09;101183.47;;;14.01;92.81
13934;BME280;7039;52.168;9.866;2022-08-30T02:33:37;101182.75;;;13.99;93.58
13934;BME280;7039;52.168;9.866;2022-08-30T02:36:05;101188.66;;;14.03;93.42
13934;BME280;7039;52.168;9.866;2022-08-30T02:38:32;101187.50;;;14.08;93.35
13934;BME280;7039;52.168;9.866;2022-08-30T02:40:58;101181.56;;;14.05;93.73
13934;BME280;7039;52.168;9.866;2022-08-30T02:43:25;101182.91;;;14.12;92.80
13934;BME280;7039;52.168;9.866;2022-08-30T02:45:51;101185.44;;;13.97;92.62
13934;BME280;7039;52.168;9.866;2022-08-30T02:48:18;101184.50;;;13.98;92.57
13934;BME280;7039;52.168;9.866;2022-08-30T02:50:48;101180.59;;;13.90;92.38
13934;BME280;7039;52.168;9.866;2022-08-30T02:53:15;101180.63;;;13.72;93.30
13934;BME280;7039;52.168;9.866;2022-08-30T02:55:42;101182.06;;;13.78;94.05
13934;BME280;7039;52.168;9.866;2022-08-30T02:58:08;101181.16;;;13.79;95.18
13934;BME280;7039;52.168;9.866;2022-08-30T03:00:36;101188.97;;;13.96;94.98
13934;BME280;7039;52.168;9.866;2022-08-30T03:03:03;101181.63;;;14.03;94.49
13934;BME280;7039;52.168;9.866;2022-08-30T03:05:29;101188.41;;;14.07;94.46
13934;BME280;7039;52.168;9.866;2022-08-30T03:07:58;101183.28;;;14.22;94.32
13934;BME280;7039;52.168;9.866;2022-08-30T03:10:26;101180.00;;;14.34;94.21
13934;BME280;7039;52.168;9.866;2022-08-30T03:12:53;101185.50;;;14.45;93.86
13934;BME280;7039;52.168;9.866;2022-08-30T03:15:20;101182.44;;;14.53;93.58
13934;BME280;7039;52.168;9.866;2022-08-30T03:17:49;101187.31;;;14.60;92.48
13934;BME280;7039;52.168;9.866;2022-08-30T03:20:16;101183.69;;;14.63;92.69
13934;BME280;7039;52.168;9.866;2022-08-30T03:22:42;101181.63;;;14.68;92.34
13934;BME280;7039;52.168;9.866;2022-08-30T03:25:11;101186.38;;;14.77;92.08
13934;BME280;7039;52.168;9.866;2022-08-30T03:27:38;101184.69;;;14.76;91.96
13934;BME280;7039;52.168;9.866;2022-08-30T03:30:06;101173.66;;;14.86;91.62
13934;BME280;7039;52.168;9.866;2022-08-30T03:32:32;101179.31;;;14.94;91.73
13934;BME280;7039;52.168;9.866;2022-08-30T03:34:59;101182.63;;;14.97;91.72
13934;BME280;7039;52.168;9.866;2022-08-30T03:37:26;101182.84;;;15.09;91.43
13934;BME280;7039;52.168;9.866;2022-08-30T03:39:52;101179.28;;;15.10;91.24
13934;BME280;7039;52.168;9.866;2022-08-30T03:42:21;101182.50;;;15.15;91.09
13934;BME280;7039;52.168;9.866;2022-08-30T03:44:48;101181.75;;;15.13;91.09
13934;BME280;7039;52.168;9.866;2022-08-30T03:47:14;101185.41;;;15.10;91.49
13934;BME280;7039;52.168;9.866;2022-08-30T03:49:42;101174.25;;;14.91;91.98
13934;BME280;7039;52.168;9.866;2022-08-30T03:52:09;101180.91;;;14.96;91.99
13934;BME280;7039;52.168;9.866;2022-08-30T03:54:35;101177.19;;;15.00;92.14
13934;BME280;7039;52.168;9.866;2022-08-30T03:57:03;101182.16;;;15.05;91.76
13934;BME280;7039;52.168;9.866;2022-08-30T03:59:31;101180.22;;;15.09;92.03
13934;BME280;7039;52.168;9.866;2022-08-30T04:01:57;101188.94;;;15.09;91.95
13934;BME280;7039;52.168;9.866;2022-08-30T04:04:24;101181.91;;;15.10;92.09
13934;BME280;7039;52.168;9.866;2022-08-30T04:06:51;101182.09;;;15.07;91.85
13934;BME280;7039;52.168;9.866;2022-08-30T04:09:18;101181.13;;;14.77;93.12
13934;BME280;7039;52.168;9.866;2022-08-30T04:11:44;101182.97;;;14.75;93.24
13934;BME280;7039;52.168;9.866;2022-08-30T04:14:11;101180.47;;;14.74;93.47
13934;BME280;7039;52.168;9.866;2022-08-30T04:16:39;101184.16;;;14.86;93.65
13934;BME280;7039;52.168;9.866;2022-08-30T04:19:06;101187.31;;;14.76;94.94
13934;BME280;7039;52.168;9.866;2022-08-30T04:21:32;101192.81;;;14.88;94.66
13934;BME280;7039;52.168;9.866;2022-08-30T04:23:59;101197.81;;;14.92;94.61
13934;BME280;7039;52.168;9.866;2022-08-30T04:26:25;101194.25;;;14.61;98.82
13934;BME280;7039;52.168;9.866;2022-08-30T04:28:52;101191.56;;;14.63;99.00
13934;BME280;7039;52.168;9.866;2022-08-30T04:31:19;101200.53;;;14.59;99.48
13934;BME280;7039;52.168;9.866;2022-08-30T04:33:47;101202.06;;;14.63;99.79
13934;BME280;7039;52.168;9.866;2022-08-30T04:36:14;101207.19;;;14.65;99.41
13934;BME280;7039;52.168;9.866;2022-08-30T04:38:40;101208.66;;;14.54;100.00
13934;BME280;7039;52.168;9.866;2022-08-30T04:41:09;101214.97;;;14.50;100.00
13934;BME280;7039;52.168;9.866;2022-08-30T04:43:53;101217.41;;;14.37;100.00
13934;BME280;7039;52.168;9.866;2022-08-30T04:46:33;101222.91;;;14.49;100.00
13934;BME280;7039;52.168;9.866;2022-08-30T04:49:02;101224.47;;;14.69;100.00
13934;BME280;7039;52.168;9.866;2022-08-30T04:51:29;101225.19;;;14.72;100.00
13934;BME280;7039;52.168;9.866;2022-08-30T04:53:56;101231.34;;;14.71;100.00
13934;BME280;7039;52.168;9.866;2022-08-30T04:56:23;101232.28;;;14.86;100.00
13934;BME280;7039;52.168;9.866;2022-08-30T04:58:52;101231.78;;;14.95;98.47
13934;BME280;7039;52.168;9.866;2022-08-30T05:01:22;101241.25;;;14.98;97.94
13934;BME280;7039;52.168;9.866;2022-08-30T05:03:49;101232.72;;;14.94;98.04
13934;BME280;7039;52.168;9.866;2022-08-30T05:06:18;101235.97;;;15.14;97.42
13934;BME280;7039;52.168;9.866;2022-08-30T05:08:45;101235.63;;;15.20;96.57
13934;BME280;7039;52.168;9.866;2022-08-30T05:11:13;101233.41;;;15.28;96.37
13934;BME280;7039;52.168;9.866;2022-08-30T05:13:39;101242.72;;;15.34;96.39
13934;BME280;7039;52.168;9.866;2022-08-30T05:16:06;101237.19;;;15.38;96.32
13934;BME280;7039;52.168;9.866;2022-08-30T05:18:33;101244.56;;;15.48;95.93
13934;BME280;7039;52.168;9.866;2022-08-30T05:21:04;101250.78;;;15.61;95.44
13934;BME280;7039;52.168;9.866;2022-08-30T05:23:33;101247.56;;;15.72;94.44
13934;BME280;7039;52.168;9.866;2022-08-30T05:26:03;101255.06;;;15.78;93.80
13934;BME280;7039;52.168;9.866;2022-08-30T05:28:31;101253.97;;;15.82;93.50
13934;BME280;7039;52.168;9.866;2022-08-30T05:30:58;101250.28;;;15.84;93.22
13934;BME280;7039;52.168;9.866;2022-08-30T05:33:24;101258.09;;;15.86;93.27
13934;BME280;7039;52.168;9.866;2022-08-30T05:35:51;101258.09;;;15.86;94.07
13934;BME280;7039;52.168;9.866;2022-08-30T05:38:17;101251.13;;;15.85;93.59
13934;BME280;7039;52.168;9.866;2022-08-30T05:40:45;101250.69;;;15.93;94.42
13934;BME280;7039;52.168;9.866;2022-08-30T05:43:12;101255.75;;;15.96;94.33
13934;BME280;7039;52.168;9.866;2022-08-30T05:45:39;101257.09;;;16.03;94.05
13934;BME280;7039;52.168;9.866;2022-08-30T05:48:05;101254.94;;;16.10;93.90
13934;BME280;7039;52.168;9.866;2022-08-30T05:50:32;101249.50;;;16.13;93.21
13934;BME280;7039;52.168;9.866;2022-08-30T05:52:58;101255.88;;;16.23;92.82
13934;BME280;7039;52.168;9.866;2022-08-30T05:55:25;101249.69;;;16.24;92.49
13934;BME280;7039;52.168;9.866;2022-08-30T05:57:53;101257.66;;;16.37;92.38
13934;BME280;7039;52.168;9.866;2022-08-30T06:00:20;101254.75;;;16.41;92.27
13934;BME280;7039;52.168;9.866;2022-08-30T06:02:46;101252.97;;;16.42;91.21
13934;BME280;7039;52.168;9.866;2022-08-30T06:05:13;101250.34;;;16.42;91.50
13934;BME280;7039;52.168;9.866;2022-08-30T06:07:39;101253.97;;;16.39;91.28
13934;BME280;7039;52.168;9.866;2022-08-30T06:10:06;101246.66;;;16.30;90.67
13934;BME280;7039;52.168;9.866;2022-08-30T06:12:33;101255.59;;;16.42;91.17
13934;BME280;7039;52.168;9.866;2022-08-30T06:15:01;101258.22;;;16.56;91.06
13934;BME280;7039;52.168;9.866;2022-08-30T06:17:27;101261.13;;;16.52;90.83
13934;BME280;7039;52.168;9.866;2022-08-30T06:19:54;101258.56;;;16.64;90.47
13934;BME280;7039;52.168;9.866;2022-08-30T06:22:20;101255.75;;;16.67;90.45
13934;BME280;7039;52.168;9.866;2022-08-30T06:24:47;101258.38;;;16.82;89.97
13934;BME280;7039;52.168;9.866;2022-08-30T06:27:13;101267.94;;;16.97;89.27
13934;BME280;7039;52.168;9.866;2022-08-30T06:29:40;101260.50;;;17.04;89.16
13934;BME280;7039;52.168;9.866;2022-08-30T06:32:07;101262.53;;;17.13;89.04
13934;BME280;7039;52.168;9.866;2022-08-30T06:34:34;101269.59;;;17.13;88.01
13934;BME280;7039;52.168;9.866;2022-08-30T06:37:00;101265.78;;;16.75;91.27
13934;BME280;7039;52.168;9.866;2022-08-30T06:39:27;101269.28;;;16.90;90.02
13934;BME280;7039;52.168;9.866;2022-08-30T06:41:53;101270.03;;;16.92;89.91
13934;BME280;7039;52.168;9.866;2022-08-30T06:44:20;101260.94;;;16.83;90.57
13934;BME280;7039;52.168;9.866;2022-08-30T06:46:46;101263.56;;;16.83;90.20
13934;BME280;7039;52.168;9.866;2022-08-30T06:49:14;101265.16;;;16.86;90.64
13934;BME280;7039;52.168;9.866;2022-08-30T06:51:41;101268.09;;;16.81;90.65
13934;BME280;7039;52.168;9.866;2022-08-30T06:54:09;101275.41;;;16.90;90.17
13934;BME280;7039;52.168;9.866;2022-08-30T06:56:36;101275.19;;;16.94;90.24
13934;BME280;7039;52.168;9.866;2022-08-30T06:59:03;101278.94;;;17.04;90.32
13934;BME280;7039;52.168;9.866;2022-08-30T07:01:29;101270.91;;;17.05;90.10
13934;BME280;7039;52.168;9.866;2022-08-30T07:03:56;101274.56;;;16.90;91.14
13934;BME280;7039;52.168;9.866;2022-08-30T07:06:25;101273.97;;;16.99;90.31
13934;BME280;7039;52.168;9.866;2022-08-30T07:08:52;101281.41;;;16.93;90.45
13934;BME280;7039;52.168;9.866;2022-08-30T07:11:30;101281.19;;;17.10;90.10
13934;BME280;7039;52.168;9.866;2022-08-30T07:13:57;101279.56;;;17.07;90.00
13934;BME280;7039;52.168;9.866;2022-08-30T07:16:24;101279.09;;;17.15;89.86
13934;BME280;7039;52.168;9.866;2022-08-30T07:18:50;101282.81;;;17.25;89.79
13934;BME280;7039;52.168;9.866;2022-08-30T07:21:22;101282.88;;;17.38;89.75
13934;BME280;7039;52.168;9.866;2022-08-30T07:23:52;101286.88;;;17.44;89.21
13934;BME280;7039;52.168;9.866;2022-08-30T07:26:21;101289.50;;;17.44;89.19
13934;BME280;7039;52.168;9.866;2022-08-30T07:28:48;101285.41;;;17.40;88.47
13934;BME280;7039;52.168;9.866;2022-08-30T07:31:16;101283.91;;;17.36;90.33
13934;BME280;7039;52.168;9.866;2022-08-30T07:33:43;101285.81;;;17.33;89.70
13934;BME280;7039;52.168;9.866;2022-08-30T07:36:11;101283.25;;;17.32;89.20
13934;BME280;7039;52.168;9.866;2022-08-30T07:38:38;101290.91;;;17.49;89.29
13934;BME280;7039;52.168;9.866;2022-08-30T07:41:06;101279.75;;;17.59;89.18
13934;BME280;7039;52.168;9.866;2022-08-30T07:43:33;101284.34;;;17.82;87.79
13934;BME280;7039;52.168;9.866;2022-08-30T07:46:01;101289.44;;;17.85;86.92
13934;BME280;7039;52.168;9.866;2022-08-30T07:48:28;101290.31;;;17.99;87.51
13934;BME280;7039;52.168;9.866;2022-08-30T07:50:55;101293.47;;;18.04;86.70
13934;BME280;7039;52.168;9.866;2022-08-30T07:53:21;101283.31;;;18.23;84.96
13934;BME280;7039;52.168;9.866;2022-08-30T07:55:48;101287.75;;;18.35;84.74
13934;BME280;7039;52.168;9.866;2022-08-30T07:58:16;101284.75;;;18.66;82.87
13934;BME280;7039;52.168;9.866;2022-08-30T08:00:42;101297.50;;;18.85;82.85
13934;BME280;7039;52.168;9.866;2022-08-30T08:03:09;101287.41;;;19.03;81.54
13934;BME280;7039;52.168;9.866;2022-08-30T08:05:37;101290.06;;;19.03;81.51
13934;BME280;7039;52.168;9.866;2022-08-30T08:08:04;101292.47;;;18.82;83.04
13934;BME280;7039;52.168;9.866;2022-08-30T08:10:31;101294.09;;;18.95;82.59
13934;BME280;7039;52.168;9.866;2022-08-30T08:12:58;101299.03;;;19.13;81.97
13934;BME280;7039;52.168;9.866;2022-08-30T08:15:26;101302.72;;;19.34;80.97
13934;BME280;7039;52.168;9.866;2022-08-30T08:17:53;101297.53;;;19.09;80.24
13934;BME280;7039;52.168;9.866;2022-08-30T08:20:19;101300.56;;;19.28;79.70
13934;BME280;7039;52.168;9.866;2022-08-30T08:22:46;101305.56;;;19.44;79.98
13934;BME280;7039;52.168;9.866;2022-08-30T08:25:12;101307.97;;;19.47;80.76
13934;BME280;7039;52.168;9.866;2022-08-30T08:27:40;101297.78;;;18.56;83.72
13934;BME280;7039;52.168;9.866;2022-08-30T08:30:07;101304.25;;;19.02;82.60
13934;BME280;7039;52.168;9.866;2022-08-30T08:32:35;101308.44;;;19.17;81.23
13934;BME280;7039;52.168;9.866;2022-08-30T08:35:02;101306.78;;;19.51;80.35
13934;BME280;7039;52.168;9.866;2022-08-30T08:37:29;101310.47;;;19.73;79.79
13934;BME280;7039;52.168;9.866;2022-08-30T08:39:55;101307.75;;;19.61;78.66
13934;BME280;7039;52.168;9.866;2022-08-30T08:42:30;101306.59;;;19.66;78.53
13934;BME280;7039;52.168;9.866;2022-08-30T08:45:03;101305.13;;;19.61;78.93
13934;BME280;7039;52.168;9.866;2022-08-30T08:47:38;101304.00;;;19.77;78.78
13934;BME280;7039;52.168;9.866;2022-08-30T08:50:10;101299.91;;;19.73;78.37
13934;BME280;7039;52.168;9.866;2022-08-30T08:52:47;101304.88;;;19.53;79.64
13934;BME280;7039;52.168;9.866;2022-08-30T08:55:32;101302.69;;;18.86;81.96
13934;BME280;7039;52.168;9.866;2022-08-30T08:58:00;101300.75;;;19.01;82.43
13934;BME280;7039;52.168;9.866;2022-08-30T09:00:26;101293.19;;;18.84;83.16
13934;BME280;7039;52.168;9.866;2022-08-30T09:02:57;101300.69;;;19.14;82.09
13934;BME280;7039;52.168;9.866;2022-08-30T09:05:28;101302.66;;;19.23;81.00
13934;BME280;7039;52.168;9.866;2022-08-30T09:08:00;101307.06;;;19.35;80.87
13934;BME280;7039;52.168;9.866;2022-08-30T09:10:28;101295.81;;;19.45;80.68
13934;BME280;7039;52.168;9.866;2022-08-30T09:12:57;101303.44;;;19.60;80.49
13934;BME280;7039;52.168;9.866;2022-08-30T09:15:27;101313.13;;;19.73;79.82
13934;BME280;7039;52.168;9.866;2022-08-30T09:17:57;101316.13;;;20.03;78.79
13934;BME280;7039;52.168;9.866;2022-08-30T09:20:27;101306.84;;;20.09;78.29
13934;BME280;7039;52.168;9.866;2022-08-30T09:22:55;101311.28;;;20.09;77.58
13934;BME280;7039;52.168;9.866;2022-08-30T09:25:24;101305.41;;;20.16;77.09
13934;BME280;7039;52.168;9.866;2022-08-30T09:27:53;101305.41;;;20.16;77.09
13934;BME280;7039;52.168;9.866;2022-08-30T09:30:22;101305.06;;;20.32;77.02
13934;BME280;7039;52.168;9.866;2022-08-30T09:32:50;101305.03;;;20.21;77.14
13934;BME280;7039;52.168;9.866;2022-08-30T09:35:21;101304.09;;;20.33;76.86
13934;BME280;7039;52.168;9.866;2022-08-30T09:37:52;101304.84;;;20.35;75.65
13934;BME280;7039;52.168;9.866;2022-08-30T09:40:24;101306.41;;;20.38;75.38
13934;BME280;7039;52.168;9.866;2022-08-30T09:43:00;101301.81;;;20.40;75.58
13934;BME280;7039;52.168;9.866;2022-08-30T09:45:29;101307.84;;;20.42;75.77
13934;BME280;7039;52.168;9.866;2022-08-30T09:47:57;101303.13;;;20.23;76.44
13934;BME280;7039;52.168;9.866;2022-08-30T09:50:26;101300.63;;;20.33;76.28
13934;BME280;7039;52.168;9.866;2022-08-30T09:52:59;101300.84;;;20.52;75.77
13934;BME280;7039;52.168;9.866;2022-08-30T09:58:34;101291.22;;;20.74;74.37
13934;BME280;7039;52.168;9.866;2022-08-30T10:01:10;101297.06;;;21.00;74.22
13934;BME280;7039;52.168;9.866;2022-08-30T10:03:41;101293.09;;;21.05;73.38
13934;BME280;7039;52.168;9.866;2022-08-30T10:06:19;101291.97;;;21.19;72.94
13934;BME280;7039;52.168;9.866;2022-08-30T10:09:00;101290.41;;;21.17;72.66
13934;BME280;7039;52.168;9.866;2022-08-30T10:11:35;101280.16;;;21.23;72.31
13934;BME280;7039;52.168;9.866;2022-08-30T10:14:33;101284.53;;;21.34;71.87
13934;BME280;7039;52.168;9.866;2022-08-30T10:17:08;101296.91;;;21.56;71.62
13934;BME280;7039;52.168;9.866;2022-08-30T10:19:47;101292.25;;;21.69;71.71
13934;BME280;7039;52.168;9.866;2022-08-30T10:22:23;101287.56;;;21.62;71.53
13934;BME280;7039;52.168;9.866;2022-08-30T10:25:01;101284.44;;;20.92;72.73
13934;BME280;7039;52.168;9.866;2022-08-30T10:27:33;101293.53;;;21.22;72.59
13934;BME280;7039;52.168;9.866;2022-08-30T10:30:06;101295.09;;;21.24;72.63
13934;BME280;7039;52.168;9.866;2022-08-30T10:32:38;101290.22;;;21.30;71.61
13934;BME280;7039;52.168;9.866;2022-08-30T10:35:09;101292.28;;;21.37;71.69
13934;BME280;7039;52.168;9.866;2022-08-30T10:37:45;101295.00;;;21.15;71.51
13934;BME280;7039;52.168;9.866;2022-08-30T10:40:16;101285.03;;;20.84;71.26
13934;BME280;7039;52.168;9.866;2022-08-30T10:43:05;101288.31;;;20.43;72.94
13934;BME280;7039;52.168;9.866;2022-08-30T10:45:36;101289.31;;;20.64;72.94
13934;BME280;7039;52.168;9.866;2022-08-30T10:48:13;101284.41;;;21.03;71.88
13934;BME280;7039;52.168;9.866;2022-08-30T10:50:45;101290.38;;;21.28;70.97
13934;BME280;7039;52.168;9.866;2022-08-30T10:53:17;101292.78;;;21.63;70.04
13934;BME280;7039;52.168;9.866;2022-08-30T10:55:48;101293.16;;;22.01;68.68
13934;BME280;7039;52.168;9.866;2022-08-30T10:58:15;101287.84;;;22.22;68.30
13934;BME280;7039;52.168;9.866;2022-08-30T11:00:53;101289.31;;;22.36;67.22
13934;BME280;7039;52.168;9.866;2022-08-30T11:04:03;101279.09;;;22.81;66.02
13934;BME280;7039;52.168;9.866;2022-08-30T11:06:41;101269.78;;;23.06;64.98
13934;BME280;7039;52.168;9.866;2022-08-30T11:09:30;101276.66;;;23.48;63.91
13934;BME280;7039;52.168;9.866;2022-08-30T11:12:27;101266.84;;;23.58;62.54
13934;BME280;7039;52.168;9.866;2022-08-30T11:14:57;101270.75;;;23.83;62.75
13934;BME280;7039;52.168;9.866;2022-08-30T11:17:28;101271.75;;;23.33;63.94
13934;BME280;7039;52.168;9.866;2022-08-30T11:19:57;101268.97;;;22.56;65.82
13934;BME280;7039;52.168;9.866;2022-08-30T11:22:27;101268.25;;;22.54;66.88
13934;BME280;7039;52.168;9.866;2022-08-30T11:25:09;101269.41;;;22.70;65.99
13934;BME280;7039;52.168;9.866;2022-08-30T11:27:47;101266.28;;;23.16;63.66
13934;BME280;7039;52.168;9.866;2022-08-30T11:30:49;101262.78;;;23.05;63.83
13934;BME280;7039;52.168;9.866;2022-08-30T11:33:43;101263.06;;;23.02;65.35
13934;BME280;7039;52.168;9.866;2022-08-30T11:36:11;101256.28;;;22.88;64.17
13934;BME280;7039;52.168;9.866;2022-08-30T11:39:05;101264.34;;;23.37;66.18
13934;BME280;7039;52.168;9.866;2022-08-30T11:41:36;101252.84;;;23.46;63.14
13934;BME280;7039;52.168;9.866;2022-08-30T11:44:28;101258.88;;;23.48;64.19
13934;BME280;7039;52.168;9.866;2022-08-30T11:46:56;101253.41;;;23.40;64.92
13934;BME280;7039;52.168;9.866;2022-08-30T11:49:38;101249.88;;;23.69;62.33
13934;BME280;7039;52.168;9.866;2022-08-30T11:55:40;101246.66;;;23.55;60.80
13934;BME280;7039;52.168;9.866;2022-08-30T11:58:23;101239.53;;;23.75;62.30
13934;BME280;7039;52.168;9.866;2022-08-30T12:01:12;101242.69;;;23.89;60.30
13934;BME280;7039;52.168;9.866;2022-08-30T12:03:39;101239.41;;;24.05;60.28
13934;BME280;7039;52.168;9.866;2022-08-30T12:06:08;101237.88;;;24.12;61.11
13934;BME280;7039;52.168;9.866;2022-08-30T12:08:49;101238.16;;;24.36;60.98
13934;BME280;7039;52.168;9.866;2022-08-30T12:14:35;101226.38;;;25.02;60.37
13934;BME280;7039;52.168;9.866;2022-08-30T12:17:11;101216.38;;;24.87;59.96
13934;BME280;7039;52.168;9.866;2022-08-30T12:19:57;101218.09;;;25.24;58.06
13934;BME280;7039;52.168;9.866;2022-08-30T12:22:24;101210.09;;;25.24;61.23
13934;BME280;7039;52.168;9.866;2022-08-30T12:24:52;101211.41;;;25.46;59.25
13934;BME280;7039;52.168;9.866;2022-08-30T12:27:21;101211.47;;;25.54;58.99
13934;BME280;7039;52.168;9.866;2022-08-30T12:29:51;101214.50;;;25.85;59.31
13934;BME280;7039;52.168;9.866;2022-08-30T12:32:18;101205.16;;;26.15;56.58
13934;BME280;7039;52.168;9.866;2022-08-30T12:34:51;101198.72;;;26.42;57.42
13934;BME280;7039;52.168;9.866;2022-08-30T12:37:20;101202.19;;;26.69;55.94
13934;BME280;7039;52.168;9.866;2022-08-30T12:39:59;101192.47;;;26.60;54.81
13934;BME280;7039;52.168;9.866;2022-08-30T12:42:27;101199.00;;;26.82;54.71
13934;BME280;7039;52.168;9.866;2022-08-30T12:44:58;101190.97;;;26.82;51.71
13934;BME280;7039;52.168;9.866;2022-08-30T12:47:31;101188.16;;;26.75;55.26
13934;BME280;7039;52.168;9.866;2022-08-30T12:50:04;101186.84;;;26.96;52.94
13934;BME280;7039;52.168;9.866;2022-08-30T12:52:34;101179.63;;;26.29;53.33
13934;BME280;7039;52.168;9.866;2022-08-30T12:55:11;101171.25;;;26.66;56.01
13934;BME280;7039;52.168;9.866;2022-08-30T12:57:41;101174.41;;;26.62;52.67
13934;BME280;7039;52.168;9.866;2022-08-30T13:00:21;101165.25;;;26.89;53.86
13934;BME280;7039;52.168;9.866;2022-08-30T13:02:50;101167.59;;;27.00;54.97
13934;BME280;7039;52.168;9.866;2022-08-30T13:05:29;101163.69;;;27.52;52.08
13934;BME280;7039;52.168;9.866;2022-08-30T13:08:08;101170.38;;;27.56;52.91
13934;BME280;7039;52.168;9.866;2022-08-30T13:10:35;101158.34;;;26.86;49.86
13934;BME280;7039;52.168;9.866;2022-08-30T13:13:04;101157.88;;;27.96;50.56
13934;BME280;7039;52.168;9.866;2022-08-30T13:15:34;101159.69;;;28.04;50.63
13934;BME280;7039;52.168;9.866;2022-08-30T13:18:15;101154.75;;;28.78;49.02
13934;BME280;7039;52.168;9.866;2022-08-30T13:20:43;101152.22;;;28.53;47.14
13934;BME280;7039;52.168;9.866;2022-08-30T13:23:10;101140.44;;;28.31;48.51